createdAt,value
2019-03-27T00:02:31.571Z,11.10
2019-03-27T00:07:26.179Z,11.07
2019-03-27T00:12:20.761Z,11.50
2019-03-27T00:17:15.369Z,11.33
2019-03-27T00:22:10.054Z,11.20
2019-03-27T00:27:04.656Z,11.13
2019-03-27T00:31:59.266Z,10.93
2019-03-27T00:36:53.854Z,10.87
2019-03-27T00:41:48.470Z,11.47
2019-03-27T00:46:43.065Z,11.67
2019-03-27T00:51:37.738Z,11.70
2019-03-27T00:56:32.319Z,12.13
2019-03-27T01:01:26.910Z,12.07
2019-03-27T01:06:21.570Z,12.70
2019-03-27T01:11:16.182Z,13.03
2019-03-27T01:16:10.912Z,13.23
2019-03-27T01:21:05.751Z,14.27
2019-03-27T01:26:00.352Z,12.83
2019-03-27T01:30:54.981Z,14.10
2019-03-27T01:35:49.587Z,14.17
2019-03-27T01:40:44.450Z,14.00
2019-03-27T01:45:52.207Z,12.10
2019-03-27T01:50:35.399Z,11.77
2019-03-27T01:55:30.014Z,11.07
2019-03-27T02:00:24.691Z,12.10
2019-03-27T02:05:19.465Z,12.10
2019-03-27T02:10:14.752Z,11.23
2019-03-27T02:15:10.870Z,11.90
2019-03-27T02:20:08.082Z,11.97
2019-03-27T02:25:02.683Z,12.13
2019-03-27T02:29:57.274Z,13.30
2019-03-27T02:34:51.891Z,12.30
2019-03-27T02:39:46.504Z,11.60
2019-03-27T02:44:41.109Z,11.47
2019-03-27T02:49:35.757Z,11.97
2019-03-27T02:54:30.336Z,12.40
2019-03-27T02:59:24.972Z,12.03
2019-03-27T03:04:19.709Z,12.00
2019-03-27T03:09:14.344Z,11.80
2019-03-27T03:14:08.974Z,11.30
2019-03-27T03:19:03.577Z,12.17
2019-03-27T03:23:58.178Z,13.10
2019-03-27T03:28:52.783Z,11.73
2019-03-27T03:33:47.469Z,12.87
2019-03-27T03:38:42.054Z,12.20
2019-03-27T03:43:36.656Z,12.97
2019-03-27T03:48:31.252Z,12.80
2019-03-27T03:53:28.927Z,13.83
2019-03-27T03:58:26.532Z,12.23
2019-03-27T04:03:24.661Z,13.47
2019-03-27T04:08:19.266Z,12.67
2019-03-27T04:13:13.872Z,12.87
2019-03-27T04:18:08.553Z,14.03
2019-03-27T04:23:03.154Z,13.20
2019-03-27T04:27:57.828Z,14.23
2019-03-27T04:32:52.432Z,13.73
2019-03-27T04:37:47.056Z,14.10
2019-03-27T04:42:41.702Z,14.20
2019-03-27T04:47:36.310Z,14.27
2019-03-27T04:52:30.922Z,14.57
2019-03-27T04:57:25.592Z,14.27
2019-03-27T05:02:20.277Z,15.20
2019-03-27T05:07:14.886Z,16.03
2019-03-27T05:12:09.464Z,15.20
2019-03-27T05:17:04.088Z,14.77
2019-03-27T05:21:58.682Z,13.97
2019-03-27T05:26:53.329Z,16.33
2019-03-27T05:31:47.918Z,16.27
2019-03-27T05:36:42.624Z,18.37
2019-03-27T05:41:37.228Z,16.57
2019-03-27T05:46:31.867Z,17.17
2019-03-27T05:51:26.466Z,16.60
2019-03-27T05:56:21.078Z,17.13
2019-03-27T06:01:15.658Z,17.77
2019-03-27T06:06:10.266Z,17.57
2019-03-27T06:11:04.846Z,18.80
2019-03-27T06:15:59.446Z,17.70
2019-03-27T06:20:54.023Z,16.87
2019-03-27T06:25:48.639Z,16.27
2019-03-27T06:30:43.297Z,17.13
2019-03-27T06:35:37.901Z,17.10
2019-03-27T06:40:32.531Z,16.60
2019-03-27T06:45:27.151Z,17.07
2019-03-27T06:50:22.625Z,16.70
2019-03-27T06:55:17.272Z,16.73
2019-03-27T07:00:12.869Z,15.87
2019-03-27T07:05:08.182Z,16.60
2019-03-27T07:10:04.208Z,18.37
2019-03-27T07:14:59.355Z,16.80
2019-03-27T07:19:54.204Z,17.13
2019-03-27T07:24:48.831Z,15.93
2019-03-27T07:29:44.034Z,16.97
2019-03-27T07:34:38.629Z,17.90
2019-03-27T07:39:33.677Z,16.13
2019-03-27T07:44:28.902Z,16.00
2019-03-27T07:49:23.538Z,16.37
2019-03-27T07:54:18.269Z,16.53
2019-03-27T07:59:13.050Z,16.37
2019-03-27T08:04:07.672Z,15.73
2019-03-27T08:09:02.261Z,15.47
2019-03-27T08:13:57.282Z,17.30
2019-03-27T08:19:06.842Z,15.30
2019-03-27T08:23:51.901Z,15.63
2019-03-27T08:28:46.488Z,13.97
2019-03-27T08:33:41.106Z,17.02
2019-03-27T08:38:36.999Z,14.20
2019-03-27T08:43:31.776Z,12.77
2019-03-27T08:48:26.404Z,11.83
2019-03-27T08:53:21.078Z,12.17
2019-03-27T08:58:15.726Z,11.97
2019-03-27T09:03:10.322Z,10.47
2019-03-27T09:08:05.125Z,10.30
2019-03-27T09:13:00.414Z,9.93
2019-03-27T09:17:56.715Z,9.67
2019-03-27T09:22:53.484Z,8.90
2019-03-27T09:27:49.878Z,7.93
2019-03-27T09:32:44.959Z,8.37
2019-03-27T09:37:39.638Z,6.53
2019-03-27T09:42:34.376Z,6.70
2019-03-27T09:47:28.967Z,7.30
2019-03-27T09:52:23.609Z,8.27
2019-03-27T09:57:18.193Z,8.67
2019-03-27T10:02:19.709Z,8.50
2019-03-27T10:07:14.631Z,8.83
2019-03-27T10:12:09.266Z,9.43
2019-03-27T10:17:04.445Z,8.87
2019-03-27T10:21:59.092Z,8.77
2019-03-27T10:26:53.709Z,8.67
2019-03-27T10:31:48.485Z,8.97
2019-03-27T10:36:43.341Z,8.33
2019-03-27T10:41:37.988Z,8.70
2019-03-27T10:46:32.756Z,9.60
2019-03-27T10:51:27.375Z,7.50
2019-03-27T10:56:22.007Z,7.40
2019-03-27T11:01:17.076Z,7.77
2019-03-27T11:06:11.706Z,6.90
2019-03-27T11:11:07.241Z,6.77
2019-03-27T11:16:02.826Z,6.30
2019-03-27T11:20:57.493Z,5.73
2019-03-27T11:25:52.450Z,6.37
2019-03-27T11:30:48.559Z,7.00
2019-03-27T11:35:43.333Z,6.57
2019-03-27T11:40:38.093Z,6.40
2019-03-27T11:45:32.804Z,6.40
2019-03-27T11:50:28.250Z,7.10
2019-03-27T11:55:22.846Z,7.90
2019-03-27T12:00:20.159Z,6.17
2019-03-27T12:05:14.891Z,6.53
2019-03-27T12:10:10.306Z,6.13
2019-03-27T12:15:09.052Z,6.50
2019-03-27T12:20:05.160Z,6.30
2019-03-27T12:24:59.846Z,6.00
2019-03-27T12:29:59.053Z,6.03
2019-03-27T12:34:53.710Z,6.33
2019-03-27T12:39:48.350Z,5.47
2019-03-27T12:44:42.936Z,4.77
2019-03-27T12:49:37.672Z,4.33
2019-03-27T12:54:32.315Z,5.30
2019-03-27T12:59:27.009Z,5.60
2019-03-27T13:04:21.902Z,4.70
2019-03-27T13:09:16.571Z,5.90
2019-03-27T13:14:11.172Z,6.50
2019-03-27T13:19:06.087Z,6.30
2019-03-27T13:24:00.703Z,6.17
2019-03-27T13:28:55.714Z,6.07
2019-03-27T13:33:50.693Z,4.73
2019-03-27T13:38:45.477Z,5.57
2019-03-27T13:43:40.499Z,4.30
2019-03-27T13:48:35.250Z,4.97
2019-03-27T13:53:30.128Z,4.40
2019-03-27T13:58:24.770Z,4.57
2019-03-27T14:03:20.896Z,4.87
2019-03-27T14:08:15.500Z,4.70
2019-03-27T14:13:10.119Z,4.40
2019-03-27T14:18:04.910Z,5.27
2019-03-27T14:22:59.512Z,4.80
2019-03-27T14:27:54.598Z,4.47
2019-03-27T14:32:49.221Z,4.30
2019-03-27T14:37:43.924Z,4.30
2019-03-27T14:42:39.504Z,5.07
2019-03-27T14:47:34.237Z,4.87
2019-03-27T14:52:28.885Z,4.53
2019-03-27T14:57:23.507Z,4.07
2019-03-27T15:02:18.110Z,4.80
2019-03-27T15:07:12.691Z,5.17
2019-03-27T15:12:07.288Z,4.57
2019-03-27T15:17:02.770Z,4.87
2019-03-27T15:21:57.352Z,5.17
2019-03-27T15:26:51.962Z,5.00
2019-03-27T15:31:46.574Z,5.07
2019-03-27T15:36:41.207Z,4.57
2019-03-27T15:41:35.838Z,4.37
2019-03-27T15:46:30.774Z,4.40
2019-03-27T15:51:25.434Z,5.40
2019-03-27T15:56:20.383Z,5.27
2019-03-27T16:01:15.185Z,4.37
2019-03-27T16:06:10.115Z,4.20
2019-03-27T16:11:04.820Z,4.83
2019-03-27T16:15:59.471Z,4.73
2019-03-27T16:20:54.394Z,3.80
2019-03-27T16:25:48.966Z,3.90
2019-03-27T16:30:43.581Z,3.70
2019-03-27T16:35:38.412Z,3.80
2019-03-27T16:40:46.854Z,4.40
2019-03-27T16:45:41.680Z,4.77
2019-03-27T16:50:36.285Z,4.63
2019-03-27T16:55:30.909Z,3.80
2019-03-27T17:00:25.609Z,4.10
2019-03-27T17:05:20.301Z,4.07
2019-03-27T17:10:15.288Z,3.60
2019-03-27T17:15:10.149Z,4.27
2019-03-27T17:20:10.471Z,4.93
2019-03-27T17:25:07.964Z,4.37
2019-03-27T17:30:02.638Z,4.47
2019-03-27T17:34:57.231Z,4.23
2019-03-27T17:39:51.840Z,4.77
2019-03-27T17:44:46.439Z,4.83
2019-03-27T17:49:41.035Z,5.37
2019-03-27T17:54:35.629Z,4.90
2019-03-27T17:59:30.241Z,5.07
2019-03-27T18:04:24.900Z,5.30
2019-03-27T18:09:19.508Z,5.43
2019-03-27T18:14:14.094Z,6.00
2019-03-27T18:19:08.754Z,6.30
2019-03-27T18:24:03.379Z,6.00
2019-03-27T18:28:58.000Z,6.67
2019-03-27T18:33:52.617Z,6.57
2019-03-27T18:38:47.227Z,6.37
2019-03-27T18:43:41.835Z,6.33
2019-03-27T18:48:36.429Z,6.30
2019-03-27T18:53:31.062Z,6.50
2019-03-27T18:58:25.658Z,6.43
2019-03-27T19:03:20.405Z,7.07
2019-03-27T19:08:15.153Z,6.97
2019-03-27T19:13:09.824Z,7.27
2019-03-27T19:18:04.644Z,12.73
2019-03-27T19:22:59.317Z,28.33
2019-03-27T19:27:53.962Z,18.27
2019-03-27T19:32:48.640Z,8.17
2019-03-27T19:37:43.375Z,7.13
2019-03-27T19:42:38.024Z,7.63
2019-03-27T19:47:33.629Z,6.93
2019-03-27T19:52:28.347Z,6.80
2019-03-27T19:57:23.023Z,8.17
2019-03-27T20:02:17.676Z,7.33
2019-03-27T20:07:12.359Z,7.63
2019-03-27T20:12:07.038Z,7.30
2019-03-27T20:17:01.748Z,6.50
2019-03-27T20:21:56.464Z,7.03
2019-03-27T20:26:51.060Z,6.93
2019-03-27T20:31:45.732Z,6.83
2019-03-27T20:36:40.409Z,6.50
2019-03-27T20:41:35.095Z,6.03
2019-03-27T20:46:29.765Z,6.50
2019-03-27T20:51:24.407Z,6.50
2019-03-27T20:56:19.036Z,7.20
2019-03-27T21:01:13.818Z,6.53
2019-03-27T21:06:08.489Z,7.50
2019-03-27T21:11:03.458Z,7.90
2019-03-27T21:15:58.051Z,6.97
2019-03-27T21:20:52.708Z,7.90
2019-03-27T21:25:47.306Z,7.77
2019-03-27T21:30:41.898Z,7.83
2019-03-27T21:35:36.491Z,8.33
2019-03-27T21:40:31.079Z,7.90
2019-03-27T21:45:25.673Z,7.70
2019-03-27T21:50:20.280Z,7.53
2019-03-27T21:55:22.549Z,7.63
2019-03-27T22:00:12.188Z,7.60
2019-03-27T22:05:08.490Z,7.77
2019-03-27T22:10:03.583Z,7.43
2019-03-27T22:14:58.171Z,7.97
2019-03-27T22:19:52.819Z,8.07
2019-03-27T22:24:47.511Z,8.23
2019-03-27T22:29:42.112Z,8.87
2019-03-27T22:34:36.729Z,8.23
2019-03-27T22:39:31.299Z,8.47
2019-03-27T22:44:25.901Z,8.07
2019-03-27T22:49:20.493Z,8.90
2019-03-27T22:54:15.162Z,8.73
2019-03-27T22:59:09.743Z,9.20
2019-03-27T23:04:04.359Z,8.23
2019-03-27T23:08:58.960Z,9.17
2019-03-27T23:13:53.571Z,9.43
2019-03-27T23:18:53.024Z,9.10
2019-03-27T23:23:52.086Z,8.97
2019-03-27T23:28:47.184Z,9.67
2019-03-27T23:33:41.852Z,9.20
2019-03-27T23:38:36.594Z,9.37
2019-03-27T23:43:32.318Z,9.90
2019-03-27T23:48:26.923Z,9.27
2019-03-27T23:53:21.926Z,8.17
2019-03-27T23:58:16.499Z,9.03
